| Date | Time | Temp. (oF) | Dew Point (oF) | Rel. Hum. (%) | Press. (in.) | Wind Dir. | Wind Speed (mph) | Hourly Rainfall (in.) |
|
|---|---|---|---|---|---|---|---|---|---|
| 1 | 03/30 | 00:00 | 43 | 38 | 83 | 29.98 | W | 3 | 0.00 |
| 2 | 03/29 | 23:00 | 45 | 39 | 80 | 29.97 | N | 5 | 0.00 |
| 3 | 03/29 | 22:00 | 46 | 39 | 78 | 29.96 | NNW | 13 | 0.00 |
| 4 | 03/29 | 21:00 | 49 | 41 | 76 | 29.93 | NE | 3 | 0.00 |
| 5 | 03/29 | 20:00 | 51 | 42 | 73 | 29.89 | NNW | 7 | 0.00 |
| 6 | 03/29 | 19:00 | 53 | 44 | 72 | 29.85 | N | 8 | 0.00 |
| 7 | 03/29 | 18:00 | 56 | 45 | 68 | 29.81 | NNW | 6 | 0.00 |
| 8 | 03/29 | 17:00 | 57 | 46 | 69 | 29.77 | WNW | 11 | 0.00 |
| 9 | 03/29 | 16:00 | 57 | 46 | 68 | 29.74 | NNW | 13 | 0.00 |
| 10 | 03/29 | 15:00 | 55 | 46 | 74 | 29.74 | NW | 11 | 0.00 |
| 11 | 03/29 | 14:00 | 56 | 47 | 74 | 29.71 | NW | 13 | 0.00 |
| 12 | 03/29 | 13:00 | 54 | 46 | 76 | 29.70 | N | 14 | 0.00 |
| 13 | 03/29 | 12:00 | 49 | 45 | 89 | 29.70 | NW | 11 | 0.00 |
| 14 | 03/29 | 11:00 | 48 | 44 | 86 | 29.70 | NNW | 11 | 0.00 |
| 15 | 03/29 | 10:00 | 47 | 43 | 88 | 29.66 | NNW | 8 | 0.00 |
| 16 | 03/29 | 09:00 | 46 | 43 | 91 | 29.61 | WNW | 8 | 0.00 |
| 17 | 03/29 | 08:00 | 46 | 45 | 99 | 29.57 | NW | 7 | 0.00 |
| 18 | 03/29 | 07:00 | 45 | 45 | 100 | 29.55 | NW | 6 | 0.00 |
| 19 | miss | miss | miss | miss | miss | miss | miss | miss | |
| 20 | 03/29 | 06:11 | 44 | 44 | 100 | 29.51 | WNW | 5 | 0.00 |
| 21 | miss | miss | miss | miss | miss | miss | miss | miss | |
| 22 | 03/29 | 06:09 | 44 | 44 | 100 | 29.51 | NNW | 8 | 0.00 |
| 23 | miss | miss | miss | miss | miss | miss | miss | miss | |
| 24 | 03/29 | 06:07 | 44 | 44 | 100 | 29.51 | NW | 6 | 0.00 |
| 25 | miss | miss | miss | miss | miss | miss | miss | miss | |
| 26 | 03/29 | 06:06 | 44 | 44 | 100 | 29.51 | NW | 8 | 0.00 |
| 27 | miss | miss | miss | miss | miss | miss | miss | miss | |
| 28 | 03/29 | 06:06 | 44 | 44 | 100 | 29.51 | NW | 8 | 0.00 |
| 29 | miss | miss | miss | miss | miss | miss | miss | miss | |
| 30 | 03/29 | 06:06 | 44 | 44 | 100 | 29.51 | NW | 8 | 0.00 |
| 31 | miss | miss | miss | miss | miss | miss | miss | miss | |
| 32 | 03/29 | 06:06 | 44 | 44 | 100 | 29.51 | NW | 8 | 0.00 |
| 33 | miss | miss | miss | miss | miss | miss | miss | miss | |
| 34 | 03/29 | 06:06 | 44 | 44 | 100 | 29.51 | NW | 8 | 0.00 |
| 35 | miss | miss | miss | miss | miss | miss | miss | miss | |
| 36 | 03/29 | 06:06 | 44 | 44 | 100 | 29.51 | NW | 8 | 0.00 |
| 37 | miss | miss | miss | miss | miss | miss | miss | miss | |
| 38 | 03/29 | 06:06 | 44 | 44 | 100 | 29.51 | NW | 8 | 0.00 |
| 39 | miss | miss | miss | miss | miss | miss | miss | miss | |
| 40 | 03/29 | 06:06 | 44 | 44 | 100 | 29.51 | NW | 8 | 0.00 |
| 41 | miss | miss | miss | miss | miss | miss | miss | miss | |
| 42 | 03/29 | 06:06 | 44 | 44 | 100 | 29.51 | NW | 8 | 0.00 |
| 43 | 03/29 | 06:00 | 45 | 45 | 100 | 29.50 | NNW | 7 | 0.00 |
| 44 | 03/29 | 05:00 | 45 | 45 | 100 | 29.46 | NW | 8 | 0.00 |
| 45 | 03/29 | 04:00 | 47 | 46 | 100 | 29.43 | NW | 4 | 0.00 |
| 46 | 03/29 | 03:00 | 47 | 46 | 100 | 29.40 | NNW | 4 | 0.01 |
| 47 | 03/29 | 02:00 | 46 | 45 | 100 | 29.40 | NNW | 8 | 0.00 |
| 48 | 03/29 | 01:00 | 46 | 45 | 100 | 29.38 | NNW | 3 | 0.00 |
| 49 | 03/29 | 00:00 | 46 | 45 | 100 | 29.35 | NW | 5 | -0.01 |
| 50 | 03/28 | 23:00 | 46 | 45 | 100 | 29.34 | NNE | 4 | 0.00 |
| 51 | 03/28 | 22:00 | 45 | 45 | 100 | 29.33 | N | 4 | 0.00 |
| 52 | 03/28 | 21:00 | 45 | 45 | 100 | 29.34 | N | 5 | 0.00 |
| 53 | 03/28 | 20:00 | 46 | 45 | 100 | 29.33 | ENE | 7 | 0.08 |
| 54 | 03/28 | 19:00 | 45 | 45 | 100 | 29.37 | NNE | 6 | 0.01 |
| 55 | 03/28 | 18:00 | 46 | 45 | 100 | 29.31 | NE | 7 | 0.00 |
| 56 | 03/28 | 17:00 | 46 | 45 | 100 | 29.32 | N | 19 | 0.01 |
| 57 | 03/28 | 16:00 | 44 | 44 | 100 | 29.39 | NE | 9 | 0.05 |
| 58 | 03/28 | 15:00 | 43 | 42 | 100 | 29.42 | NE | 10 | 0.12 |
| 59 | 03/28 | 14:00 | 43 | 42 | 100 | 29.46 | NE | 6 | 0.28 |
| 60 | 03/28 | 13:00 | 42 | 41 | 100 | 29.51 | ENE | 7 | 0.12 |
| 61 | 03/28 | 12:00 | 41 | 41 | 100 | 29.56 | ENE | 5 | 0.10 |
| 62 | 03/28 | 11:00 | 40 | 40 | 100 | 29.62 | NE | 7 | 0.01 |
| 63 | 03/28 | 10:00 | 39 | 39 | 100 | 29.66 | NNE | 6 | 0.01 |
| 64 | 03/28 | 09:00 | 38 | 37 | 100 | 29.68 | NNE | 7 | 0.00 |
| 65 | 03/28 | 08:00 | 38 | 37 | 100 | 29.73 | E | 4 | 0.01 |
| 66 | 03/28 | 07:00 | 37 | 36 | 100 | 29.76 | NE | 8 | 0.01 |
| 67 | 03/28 | 06:00 | 37 | 36 | 100 | 29.80 | NE | 5 | 0.02 |
| 68 | 03/28 | 05:00 | 36 | 36 | 100 | 29.82 | NNE | 6 | 0.01 |
| 69 | 03/28 | 04:00 | 37 | 36 | 100 | 29.85 | NE | 8 | 0.00 |
| 70 | 03/28 | 03:00 | 37 | 36 | 100 | 29.88 | ENE | 7 | 0.01 |
| 71 | 03/28 | 02:00 | 38 | 37 | 100 | 29.92 | NE | 9 | 0.03 |
| 72 | 03/28 | 01:00 | 38 | 37 | 100 | 29.97 | ENE | 7 | 0.05 |
| 73 | 03/28 | 00:00 | 39 | 39 | 100 | 30.00 | ENE | 5 | 0.00 |
| 74 | miss | miss | miss | miss | miss | miss | miss | miss | |
| 75 | 03/27 | 23:09 | 40 | 40 | 100 | 30.01 | ENE | 8 | 0.00 |
| 76 | miss | miss | miss | miss | miss | miss | miss | miss | |
| 77 | 03/27 | 23:07 | 40 | 40 | 100 | 30.01 | E | 7 | 0.00 |
| 78 | miss | miss | miss | miss | miss | miss | miss | miss | |
| 79 | 03/27 | 23:05 | 40 | 40 | 100 | 30.01 | ENE | 7 | 0.00 |
| 80 | miss | miss | miss | miss | miss | miss | miss | miss | |
| 81 | 03/27 | 23:03 | 40 | 40 | 100 | 30.00 | E | 10 | 0.00 |
| 82 | miss | miss | miss | miss | miss | miss | miss | miss | |
| 83 | 03/27 | 23:01 | 40 | 40 | 100 | 30.00 | E | 7 | 0.00 |
| 84 | miss | miss | miss | miss | miss | miss | miss | miss | |
| 85 | 03/27 | 22:59 | 40 | 40 | 100 | 30.00 | NE | 6 | 0.00 |
| 86 | 03/27 | 22:58 | 40 | 40 | 100 | 30.00 | NE | 5 | 0.00 |
| 87 | 03/27 | 22:57 | 40 | 40 | 100 | 30.00 | NE | 6 | 0.00 |
| 88 | 03/27 | 22:56 | 40 | 40 | 100 | 30.00 | NE | 4 | 0.00 |
| 89 | 03/27 | 22:55 | 40 | 40 | 100 | 30.00 | ENE | 4 | 0.00 |
| 90 | miss | miss | miss | miss | miss | miss | miss | miss | |
| 91 | 03/27 | 22:53 | 40 | 40 | 100 | 30.00 | E | 11 | 0.00 |
| 92 | miss | miss | miss | miss | miss | miss | miss | miss | |
| 93 | 03/27 | 22:51 | 40 | 40 | 100 | 30.00 | ENE | 10 | 0.00 |
| 94 | miss | miss | miss | miss | miss | miss | miss | miss | |
| 95 | 03/27 | 22:49 | 40 | 40 | 100 | 30.00 | E | 6 | 0.00 |
| 96 | miss | miss | miss | miss | miss | miss | miss | miss | |
| 97 | 03/27 | 22:47 | 40 | 40 | 100 | 30.00 | E | 10 | 0.00 |